KRDR

Grand Forks AFB Airport

Grand Forks, North Dakota, USA
METAR KRDR 162356Z AUTO 31006KT 10SM CLR M06/M09 A3023 RMK AO2 SLP256 T10631087 10012 21063 52016 $
Observed Flight Rules
Dec-16 @ 23:56 UTC (28 minutes ago) Visual Flight Rules
Wind Visibility Clouds
310° at 6 knots 10 miles
  • Clear skies
Temperatures Readings
Current -6°C / 21°F
Dewpoint -9°C / 16°F
Humidity 80%
Altimeter 30.23" Hg
Pressure 1025.6 hPa
Elevation 278
METAR KRDR 162356Z AUTO 31006KT 10SM CLR M06/M09 A3023 RMK AO2 SLP256 T10631087 10012 21063 52016 $
Observed Flight Rules
Dec-16 @ 23:56 UTC
(28 minutes ago)
VFR
Wind Visibility
310° at 6 knots 10 miles
Clouds
  • Clear skies
Temperature Dewpoint
-6°C / 21°F -9°C / 16°F
Humidity Altimeter Pressure
80% 30.23" Hg 1025.6 hPa